logo
Rechercher aéroport 
image banner adimage banner adimage banner ad
image banner ad

FAEMOY - Emoyeni

Situé à , South Africa

ICAO - , IATA -

Données fournies par Airmate  

Information générale

Coordonnées: S29°44'55" E30°33'1"
Élévation : 2351 feet MSL.
 
Voir autres Aéroports à Kwazulu-Natal

Données opérationnelles

Special qualification required
Heure actuelle UTC:
Heure actuelle locale:
Météo à : FAPM - Pietermaritzburg ( 19 km )
TAF: TAF FAPM 151800Z 1519/1606 VRB02KT CAVOK TX11/1519Z TN08/1603Z PROB30 TEMPO 1602/1606 2000 BR OVC006
Voir NOTAMs / SUP AIP / TFR affectant cet aéroport [VIEW]
Fréquences de communication: [VIEW]

Pistes:

Identifiant RWYQFULongueur (ft)Largeur (ft)SurfaceLDA (ft)
15129°200166GRASS
33309°200166GRASS
02177°182149GRASS
20357°182149GRASS

Coordonnées de l'aéroport

Adresse: South Africa

Vue satellite de FAEMOY